To NAV CANADA Home Page Login to a new session Search on AWWS site Feedback and Comments Disclaimer Vers la page française équivalente Tips FAQ What's new on the site To the Forecasts and Observations / NOTAM section To "File a Flight Plan" website Publications and other links Update of the User's profile FIC Telephone Numbers My Weather Data Folder Route Weather Data Regional Weather Data Local Weather Data To the Forecasts and Observations / NOTAM section
Request Generated 05/23/2015 at 05:42:33 UTC . Weather information available at that time is displayed.

METAR/TAF

ARVIAT/NU    

METAR CYEK 230500Z AUTO 34015G21KT 9SM CLR M02/M03 A3011 RMK SLP198=
METAR CYEK 230400Z AUTO 33012KT 9SM CLR M01/M03 A3010 RMK SLP195=
METAR CYEK 230300Z AUTO 34015G20KT 9SM CLR M01/M02 A3008 RMK SLP188=

TAF CYEK 230541Z 2306/2318 34018KT P6SM SKC
RMK FCST BASED ON AUTO OBS. NXT FCST BY 231200Z=
Your time UTC time
Weather data provided by Environment Canada and NAV CANADA